x

Corpus Christi, Tx - 60nm Sse Of Corpus Christi, Tx (42020) Wave Buoy

10:50am - Thu 23rd Oct 2014 All times are CDT. -5 hours from GMT.

  • Sig Wave height 4.3ft
  • Swell Direction
  • Peak Period 8s
  • Average Period 6s
  • Wind
    11mph, 13mph gusts
  • Sea Temp 81°f
  • Air Temp 78°f
  • Sea Pressure 1018.2mb
  • Corpus Christi, Tx - 60nm Sse Of Corpus Christi, Tx
  • Corpus Christi, Tx - 60nm Sse Of Corpus Christi, Tx

More Historic Weather Station data

Upgrade to MSW Pro to gain access to the past 30 days of data for over 8000 Wavebouys and Weather Stations around the globe.

Join Pro

Comparision Forecast

View Surf forecast
   
Thu 10/23 10:50am 4.5ft 8s 6s 11 13 mph 1018.2mb 81f 78f
9:50am 4.5ft 7s 6s 13 16 mph 1017.9mb 81f 78f
8:50am 4.5ft 8s 6s 9 13 mph 1017.1mb 81f 78f
7:50am 4.5ft 7s 6s 9 11 mph 1016.7mb 81f 78f
6:50am 4.5ft 7s 6s 9 11 mph 1016.1mb 80f 78f
5:50am 5ft 7s 5s 9 11 mph 1015.9mb 80f 78f
4:50am 5ft 7s 6s 11 13 mph 1015.4mb 80f 78f
3:50am 5ft 7s 5s 11 13 mph 1015.6mb 81f 78f
2:50am 5ft 7s 6s 11 13 mph 1015.9mb 81f 78f
1:50am 5ft 7s 5s 13 18 mph 1015.9mb 81f 78f
12:50am 5ft 7s 5s 16 20 mph 1016.1mb 81f 78f
Wed 10/22 11:50pm 5.5ft 8s 6s 18 20 mph 1016.4mb 81f 78f
10:50pm 5ft 7s 5s 16 20 mph 1016.8mb 81f 78f
9:50pm 6ft 7s 6s 16 18 mph 1016.7mb 81f 78f
8:50pm 5ft 7s 5s 16 18 mph 1016.1mb 81f 78f
7:50pm 5.5ft 7s 5s 13 16 mph 1015.8mb 81f 79f
6:50pm 5ft 7s 5s 16 18 mph 1015.2mb 81f 79f
5:50pm 5ft 7s 5s 16 18 mph 1014.7mb 81f 79f
4:50pm 5.5ft 7s 5s 18 22 mph 1014.3mb 81f 79f
3:50pm 5.5ft 7s 5s 18 22 mph 1014.4mb 81f 79f
2:50pm 5.5ft 7s 5s 20 22 mph 1014.7mb 81f 79f
1:50pm 6ft 7s 5s 18 22 mph 1015.3mb 81f 79f
12:50pm 5ft 7s 5s 16 20 mph 1016.2mb 81f 79f
11:50am 6ft 7s 6s 18 20 mph 1016.5mb 81f 80f
10:50am 5ft 7s 5s 18 20 mph 1016.3mb 81f 79f
9:50am 5ft 6s 5s 18 22 mph 1016.1mb 81f 80f
8:50am 5.5ft 7s 5s 18 22 mph 1015.5mb 81f 80f
7:50am 5.5ft 7s 5s 18 22 mph 1014.7mb 81f 79f
6:50am 5.5ft 7s 5s 20 22 mph 1014.1mb 81f 79f
5:50am 5ft 7s 5s 18 20 mph 1013.8mb 80f 79f
4:50am 5ft 7s 5s 16 20 mph 1013.4mb 80f 79f
3:50am 4.5ft 7s 5s 18 22 mph 1013.2mb 80f 79f
2:50am 5ft 7s 5s 16 20 mph 1013.5mb 80f 79f
1:50am 5ft 7s 5s 18 22 mph 1013.5mb 80f 79f
12:50am 5ft 7s 5s 18 20 mph 1013.8mb 80f 79f
Tue 10/21 11:50pm 5ft 7s 5s 18 20 mph 1014.4mb 81f 79f
10:50pm 5ft 7s 5s 18 22 mph 1014.5mb 81f 79f
9:50pm 5.5ft 7s 5s 20 22 mph 1014.3mb 80f 79f
8:50pm 5ft 7s 5s 20 22 mph 1013.7mb 81f 79f
7:50pm 5.5ft 6s 5s 20 25 mph 1013.1mb 81f 79f
6:50pm 5ft 7s 5s 20 25 mph 1012.5mb 81f 79f
5:50pm 5.5ft 7s 5s 18 22 mph 1012.2mb 81f 80f
4:50pm 5ft 7s 5s 18 22 mph 1012.2mb 81f 80f
3:50pm 5ft 7s 5s 20 22 mph 1012.1mb 81f 80f
2:50pm 5ft 7s 5s 18 22 mph 1012.6mb 81f 80f
1:50pm 5ft 7s 5s 20 22 mph 1013.1mb 81f 80f
12:50pm 5.5ft 7s 5s 20 22 mph 1013.8mb 81f 80f
11:50am 6ft 6s 5s 18 22 mph 1014.4mb 81f 80f
10:50am 5.5ft 6s 5s 20 25 mph 1014.5mb 81f 80f
9:50am 5ft 7s 5s 20 25 mph 1014.3mb 81f 80f
8:50am 6ft 7s 5s 20 25 mph 1013.6mb 81f 80f
7:50am 6ft 7s 5s 20 27 mph 1013.1mb 81f 80f
6:50am 6ft 7s 5s 20 25 mph 1012.7mb 81f 79f
5:50am 5.5ft 7s 5s 20 25 mph 1012.5mb 81f 77f
4:50am 5ft 7s 5s 22 27 mph 1012.1mb 81f 76f
3:50am 5ft 6s 5s 18 20 mph 1012.3mb 81f 79f
2:50am 5ft 6s 5s 18 20 mph 1012.7mb 81f 79f
1:50am 4.5ft 6s 5s 18 22 mph 1012.7mb 81f 79f
12:50am 4.5ft 6s 5s 16 20 mph 1013.2mb 80f 79f
Mon 10/20 11:50pm 4.5ft 6s 5s 20 25 mph 1013.6mb 81f 79f
10:50pm 4.5ft 7s 5s 18 22 mph 1013.8mb 81f 80f
9:50pm 4ft 6s 5s 18 20 mph 1013.6mb 81f 80f
8:50pm 4.5ft 7s 5s 13 18 mph 1013.3mb 81f 80f
7:50pm 4ft 7s 5s 18 22 mph 1012.9mb 81f 78f
6:50pm 4.5ft 6s 5s 4
mph
1012.9mb 81f 77f
5:50pm 4.5ft 6s 5s 11 13 mph 1012.7mb 81f 76f
4:50pm 4.5ft 6s 5s 16 20 mph 1012.2mb 81f 80f
3:50pm 4ft 7s 5s 13 16 mph 1012.3mb 81f 80f
2:50pm 4ft 6s 5s 11 16 mph 1012.7mb 81f 81f
1:50pm 3.5ft 6s 5s 11 13 mph 1013.4mb 81f 81f
12:50pm 4.5ft 6s 5s 11 13 mph 1014mb 81f 81f
11:50am 3.5ft 6s 5s 13 16 mph 1014.4mb 80f 81f
10:50am 4.5ft 6s 5s 7 9 mph 1014.8mb 80f 80f
9:50am 4ft 6s 5s 9 11 mph 1014.5mb 80f 81f
8:50am 4ft 6s 5s 9 11 mph 1013.9mb 80f 81f
7:50am 4ft 6s 5s 11 16 mph 1013.2mb 80f 80f
6:50am 4ft 6s 5s 13 16 mph 1012.7mb 80f 80f
5:50am 4.5ft 6s 5s 13 16 mph 1012.5mb 80f 80f
4:50am 4.5ft 6s 5s 13 16 mph 1012.2mb 80f 80f
3:50am 4.5ft 6s 5s 13 16 mph 1012.4mb 80f 80f
2:50am 4.5ft 6s 5s 16 18 mph 1012.9mb 80f 79f
1:50am 4.5ft 6s 5s 16 20 mph 1013.3mb 81f 80f
12:50am 4.5ft 6s 5s 18 22 mph 1013.7mb 81f 80f
Sun 10/19 10:50pm 4.5ft 5s 5s 16 20 mph 1014.6mb 81f 80f
9:50pm 3.5ft 5s 4s 18 20 mph 1014.1mb 81f 80f
8:50pm 3.5ft 6s 4s 18 20 mph 1013.8mb 81f 80f
7:50pm 3.5ft 5s 4s 13 16 mph 1013.9mb 81f 79f
6:50pm 3.5ft 5s 4s 11 16 mph 1014.1mb 81f 80f
5:50pm 3.5ft 6s 5s 11 13 mph 1014mb 81f 80f